EST,Max TemperatureF,Mean TemperatureF,Min TemperatureF,Max Dew PointF,MeanDew PointF,Min DewpointF,Max Humidity, Mean Humidity, Min Humidity, Max Sea Level PressureIn, Mean Sea Level PressureIn, Min Sea Level PressureIn, Max VisibilityMiles, Mean VisibilityMiles, Min VisibilityMiles, Max Wind SpeedMPH, Mean Wind SpeedMPH, Max Gust SpeedMPH,PrecipitationIn, CloudCover, Events, WindDirDegrees
2012-2-1,53,50,47,47,39,15,86,55,24,30.16,30.11,30.03,10,10,7,12,6,17,0.06,8,Rain,233
2012-2-2,51,44,36,48,40,29,100,72,44,30.38,30.12,29.98,10,7,0,18,8,25,0.24,5,Fog-Rain,302
2012-2-3,54,41,27,30,24,19,92,60,28,30.50,30.40,30.29,10,10,8,13,4,16,0.00,0,,137
2012-2-4,51,45,39,45,40,23,100,70,40,30.27,30.08,29.98,10,4,0,13,2,17,0.35,7,Fog-Rain,229
2012-2-5,46,36,25,45,35,22,100,85,70,30.28,30.08,29.95,10,4,0,13,4,17,0.04,6,Fog-Rain,351
2012-2-6,46,34,21,35,27,18,92,79,65,30.27,30.19,30.08,10,8,0,16,5,21,0.00,4,Fog,267
2012-2-7,51,38,25,29,26,23,92,66,39,30.26,30.21,30.14,10,9,5,12,3,14,0.00,0,,239
2012-2-8,34,31,28,32,28,25,92,81,69,30.27,30.17,30.10,10,5,0,16,5,22,0.18,8,Fog-Rain-Snow,293
2012-2-9,32,27,22,25,20,17,88,76,63,30.36,30.27,30.15,10,10,9,17,5,22,0.00,5,,299
2012-2-10,37,29,21,30,27,18,92,78,64,30.24,30.00,29.84,10,5,1,14,4,18,0.14,7,Snow,220
2012-2-11,30,21,11,28,16,1,92,75,58,30.27,29.91,29.75,9,2,0,29,14,39,0.09,8,Fog-Snow,302
2012-2-12,26,18,10,12,7,3,83,67,50,30.34,30.21,30.09,10,5,1,21,11,28,0.02,5,Snow,297
2012-2-13,37,26,14,21,14,10,80,62,44,30.34,30.22,30.07,10,10,10,10,4,15,0.00,3,,239
2012-2-14,40,36,31,36,28,16,92,68,44,30.11,30.01,29.90,10,9,5,13,6,17,0.05,8,Rain,206
2012-2-15,56,44,31,34,29,26,92,64,35,30.31,30.20,30.06,10,10,5,15,5,21,T,5,Snow,266
2012-2-16,49,46,43,46,42,27,93,68,42,30.14,30.05,30.00,10,7,2,18,8,26,0.37,8,Rain,233
2012-2-17,47,39,30,40,30,24,92,67,42,30.18,30.13,30.06,10,8,1,17,7,23,0.00,5,,312
2012-2-18,53,41,28,29,24,17,82,54,26,30.15,30.07,29.99,10,10,10,18,5,25,0.00,1,,293
2012-2-19,40,35,29,32,28,24,92,73,54,30.04,29.90,29.76,10,5,0,13,5,16,0.57,8,Fog-Rain-Snow,18
2012-2-20,38,29,20,26,23,18,92,76,59,30.33,30.20,29.97,10,10,6,9,3,14,0.00,4,,310
2012-2-21,53,43,32,35,26,18,63,54,44,30.24,30.02,29.88,10,10,10,24,12,37,0.00,3,,193
2012-2-22,54,46,37,40,35,25,79,57,35,29.89,29.72,29.55,10,10,10,25,11,32,0.01,5,Rain,237
2012-2-23,63,53,42,47,43,38,93,68,42,29.65,29.57,29.44,10,10,7,17,10,25,0.04,5,Rain,232
2012-2-24,63,48,32,54,41,21,86,69,51,29.85,29.58,29.41,10,8,2,36,16,47,0.52,7,Rain-Snow,270
2012-2-25,33,28,23,21,14,9,69,54,39,30.40,30.09,29.83,10,10,9,32,16,46,T,6,Snow,295
2012-2-26,51,35,18,19,14,8,73,47,20,30.48,30.38,30.27,10,10,10,15,6,20,0.00,0,,157
2012-2-27,59,45,30,30,24,18,63,47,30,30.40,30.35,30.28,10,10,10,18,8,26,0.00,1,,255
2012-2-28,64,46,28,30,18,2,64,36,8,30.43,30.33,30.17,10,10,10,14,5,18,0.00,0,,127
2012-2-29,65,56,47,55,50,34,78,61,44,30.13,29.93,29.79,10,8,2,16,12,25,1.17,7,Rain,210